sensor_id;sensor_type;location;lat;lon;timestamp;pressure;altitude;pressure_sealevel;temperature;humidity
62712;BME280;48772;55.586;37.730;2022-12-08T00:01:11;99950.50;;;-8.61;100.00
62712;BME280;48772;55.586;37.730;2022-12-08T00:03:37;99947.06;;;-8.51;100.00
62712;BME280;48772;55.586;37.730;2022-12-08T00:06:04;99935.00;;;-8.55;100.00
62712;BME280;48772;55.586;37.730;2022-12-08T00:08:49;99921.22;;;-8.52;100.00
62712;BME280;48772;55.586;37.730;2022-12-08T00:11:35;99900.53;;;-8.66;100.00
62712;BME280;48772;55.586;37.730;2022-12-08T00:14:01;99914.31;;;-8.56;100.00
62712;BME280;48772;55.586;37.730;2022-12-08T00:16:27;99919.50;;;-8.55;100.00
62712;BME280;48772;55.586;37.730;2022-12-08T00:18:52;99921.22;;;-8.51;100.00
62712;BME280;48772;55.586;37.730;2022-12-08T00:21:18;99915.16;;;-8.50;100.00
62712;BME280;48772;55.586;37.730;2022-12-08T00:23:47;99910.00;;;-8.48;100.00
62712;BME280;48772;55.586;37.730;2022-12-08T00:26:13;99903.97;;;-8.47;100.00
62712;BME280;48772;55.586;37.730;2022-12-08T00:28:39;99870.38;;;-8.64;100.00
62712;BME280;48772;55.586;37.730;2022-12-08T00:31:09;99896.22;;;-8.44;100.00
62712;BME280;48772;55.586;37.730;2022-12-08T00:33:36;99886.75;;;-8.48;100.00
62712;BME280;48772;55.586;37.730;2022-12-08T00:36:10;99901.38;;;-8.44;100.00
62712;BME280;48772;55.586;37.730;2022-12-08T00:38:37;99901.38;;;-8.46;100.00
62712;BME280;48772;55.586;37.730;2022-12-08T00:41:12;99818.75;;;-8.86;100.00
62712;BME280;48772;55.586;37.730;2022-12-08T00:43:38;99861.78;;;-8.67;100.00
62712;BME280;48772;55.586;37.730;2022-12-08T00:46:03;99901.38;;;-8.44;100.00
62712;BME280;48772;55.586;37.730;2022-12-08T00:48:29;99893.63;;;-8.43;100.00
62712;BME280;48772;55.586;37.730;2022-12-08T00:50:55;99892.75;;;-8.40;100.00
62712;BME280;48772;55.586;37.730;2022-12-08T00:53:21;99892.78;;;-8.49;100.00
62712;BME280;48772;55.586;37.730;2022-12-08T00:55:47;99887.59;;;-8.40;100.00
62712;BME280;48772;55.586;37.730;2022-12-08T00:58:13;99906.56;;;-8.44;100.00
62712;BME280;48772;55.586;37.730;2022-12-08T01:00:42;99888.44;;;-8.50;100.00
62712;BME280;48772;55.586;37.730;2022-12-08T01:03:11;99866.94;;;-8.58;100.00
62712;BME280;48772;55.586;37.730;2022-12-08T01:05:40;99904.81;;;-8.35;100.00
62712;BME280;48772;55.586;37.730;2022-12-08T01:08:07;99881.53;;;-8.41;100.00
62712;BME280;48772;55.586;37.730;2022-12-08T01:10:37;99883.28;;;-8.46;100.00
62712;BME280;48772;55.586;37.730;2022-12-08T01:13:04;99897.94;;;-8.43;100.00
62712;BME280;48772;55.586;37.730;2022-12-08T01:15:30;99875.53;;;-8.47;100.00
62712;BME280;48772;55.586;37.730;2022-12-08T01:17:55;99861.75;;;-8.60;100.00
62712;BME280;48772;55.586;37.730;2022-12-08T01:20:21;99882.44;;;-8.55;100.00
62712;BME280;48772;55.586;37.730;2022-12-08T01:22:47;99890.19;;;-8.48;100.00
62712;BME280;48772;55.586;37.730;2022-12-08T01:25:13;99872.97;;;-8.61;100.00
62712;BME280;48772;55.586;37.730;2022-12-08T01:27:40;99873.81;;;-8.57;100.00
62712;BME280;48772;55.586;37.730;2022-12-08T01:30:15;99905.69;;;-8.43;100.00
62712;BME280;48772;55.586;37.730;2022-12-08T01:32:41;99902.25;;;-8.45;100.00
62712;BME280;48772;55.586;37.730;2022-12-08T01:35:10;99882.44;;;-8.49;100.00
62712;BME280;48772;55.586;37.730;2022-12-08T01:37:36;99899.66;;;-8.45;100.00
62712;BME280;48772;55.586;37.730;2022-12-08T01:40:03;99897.09;;;-8.44;100.00
62712;BME280;48772;55.586;37.730;2022-12-08T01:42:29;99883.28;;;-8.43;100.00
62712;BME280;48772;55.586;37.730;2022-12-08T01:44:59;99862.63;;;-8.68;100.00
62712;BME280;48772;55.586;37.730;2022-12-08T01:47:38;99865.22;;;-8.74;100.00
62712;BME280;48772;55.586;37.730;2022-12-08T01:50:07;99871.25;;;-8.60;100.00
62712;BME280;48772;55.586;37.730;2022-12-08T01:52:39;99841.97;;;-8.73;100.00
62712;BME280;48772;55.586;37.730;2022-12-08T01:55:13;99860.91;;;-8.62;100.00
62712;BME280;48772;55.586;37.730;2022-12-08T01:58:05;99866.09;;;-8.60;100.00
62712;BME280;48772;55.586;37.730;2022-12-08T02:00:35;99898.78;;;-8.44;100.00
62712;BME280;48772;55.586;37.730;2022-12-08T02:03:08;99903.09;;;-8.43;100.00
62712;BME280;48772;55.586;37.730;2022-12-08T02:05:38;99852.28;;;-8.65;100.00
62712;BME280;48772;55.586;37.730;2022-12-08T02:08:07;99859.19;;;-8.67;100.00
62712;BME280;48772;55.586;37.730;2022-12-08T02:10:36;99876.41;;;-8.57;100.00
62712;BME280;48772;55.586;37.730;2022-12-08T02:13:04;99845.41;;;-8.74;100.00
62712;BME280;48772;55.586;37.730;2022-12-08T02:21:38;99880.72;;;-8.41;100.00
62712;BME280;48772;55.586;37.730;2022-12-08T02:24:18;99842.81;;;-8.62;100.00
62712;BME280;48772;55.586;37.730;2022-12-08T02:27:01;99884.16;;;-8.42;100.00
62712;BME280;48772;55.586;37.730;2022-12-08T02:32:37;99877.25;;;-8.43;100.00
62712;BME280;48772;55.586;37.730;2022-12-08T02:35:23;99871.25;;;-8.45;100.00
62712;BME280;48772;55.586;37.730;2022-12-08T02:40:47;99837.66;;;-8.66;100.00
62712;BME280;48772;55.586;37.730;2022-12-08T02:43:40;99825.59;;;-8.64;100.00
62712;BME280;48772;55.586;37.730;2022-12-08T02:46:14;99847.13;;;-8.55;100.00
62712;BME280;48772;55.586;37.730;2022-12-08T02:48:42;99838.53;;;-8.66;100.00
62712;BME280;48772;55.586;37.730;2022-12-08T02:51:08;99849.72;;;-8.53;100.00
62712;BME280;48772;55.586;37.730;2022-12-08T02:53:35;99839.38;;;-8.64;100.00
62712;BME280;48772;55.586;37.730;2022-12-08T03:03:50;99842.81;;;-8.45;100.00
62712;BME280;48772;55.586;37.730;2022-12-08T03:06:39;99837.63;;;-8.48;100.00
62712;BME280;48772;55.586;37.730;2022-12-08T03:11:55;99838.50;;;-8.48;100.00
62712;BME280;48772;55.586;37.730;2022-12-08T03:14:24;99849.72;;;-8.56;100.00
62712;BME280;48772;55.586;37.730;2022-12-08T03:16:54;99849.72;;;-8.58;100.00
62712;BME280;48772;55.586;37.730;2022-12-08T03:19:26;99845.38;;;-8.57;100.00
62712;BME280;48772;55.586;37.730;2022-12-08T03:21:56;99818.69;;;-8.61;100.00
62712;BME280;48772;55.586;37.730;2022-12-08T03:24:30;99746.41;;;-8.95;100.00
62712;BME280;48772;55.586;37.730;2022-12-08T03:27:07;99792.88;;;-8.77;100.00
62712;BME280;48772;55.586;37.730;2022-12-08T03:29:34;99839.34;;;-8.52;100.00
62712;BME280;48772;55.586;37.730;2022-12-08T03:32:18;99826.41;;;-8.52;100.00
62712;BME280;48772;55.586;37.730;2022-12-08T03:34:47;99816.13;;;-8.56;100.00
62712;BME280;48772;55.586;37.730;2022-12-08T03:37:14;99793.75;;;-8.81;100.00
62712;BME280;48772;55.586;37.730;2022-12-08T03:39:41;99811.81;;;-8.59;100.00
62712;BME280;48772;55.586;37.730;2022-12-08T03:42:07;99824.75;;;-8.59;100.00
62712;BME280;48772;55.586;37.730;2022-12-08T03:44:35;99793.72;;;-8.68;100.00
62712;BME280;48772;55.586;37.730;2022-12-08T03:47:01;99821.28;;;-8.55;100.00
62712;BME280;48772;55.586;37.730;2022-12-08T03:49:27;99820.41;;;-8.61;100.00
62712;BME280;48772;55.586;37.730;2022-12-08T03:51:52;99793.72;;;-8.59;100.00
62712;BME280;48772;55.586;37.730;2022-12-08T03:54:18;99816.13;;;-8.56;100.00
62712;BME280;48772;55.586;37.730;2022-12-08T03:56:44;99791.16;;;-8.71;100.00
62712;BME280;48772;55.586;37.730;2022-12-08T03:59:10;99784.25;;;-8.73;100.00
62712;BME280;48772;55.586;37.730;2022-12-08T04:01:36;99779.97;;;-8.77;100.00
62712;BME280;48772;55.586;37.730;2022-12-08T04:04:02;99775.66;;;-8.72;100.00
62712;BME280;48772;55.586;37.730;2022-12-08T04:06:28;99794.56;;;-8.61;100.00
62712;BME280;48772;55.586;37.730;2022-12-08T04:08:53;99816.13;;;-8.58;100.00
62712;BME280;48772;55.586;37.730;2022-12-08T04:11:19;99799.78;;;-8.66;100.00
62712;BME280;48772;55.586;37.730;2022-12-08T04:13:46;99763.63;;;-8.87;100.00
62712;BME280;48772;55.586;37.730;2022-12-08T04:16:17;99799.78;;;-8.64;100.00
62712;BME280;48772;55.586;37.730;2022-12-08T04:18:43;99775.69;;;-8.75;100.00
62712;BME280;48772;55.586;37.730;2022-12-08T04:21:09;99767.94;;;-8.77;100.00
62712;BME280;48772;55.586;37.730;2022-12-08T04:23:35;99786.84;;;-8.67;100.00
62712;BME280;48772;55.586;37.730;2022-12-08T04:26:01;99785.09;;;-8.61;100.00
62712;BME280;48772;55.586;37.730;2022-12-08T04:28:27;99787.69;;;-8.62;100.00
62712;BME280;48772;55.586;37.730;2022-12-08T04:30:54;99790.28;;;-8.68;100.00
62712;BME280;48772;55.586;37.730;2022-12-08T04:33:20;99778.22;;;-8.71;100.00
62712;BME280;48772;55.586;37.730;2022-12-08T04:35:46;99809.22;;;-8.60;100.00
62712;BME280;48772;55.586;37.730;2022-12-08T04:38:12;99804.03;;;-8.56;100.00
62712;BME280;48772;55.586;37.730;2022-12-08T04:40:38;99778.25;;;-8.75;100.00
62712;BME280;48772;55.586;37.730;2022-12-08T04:43:04;99774.81;;;-8.79;100.00
62712;BME280;48772;55.586;37.730;2022-12-08T04:45:30;99763.59;;;-8.79;100.00
62712;BME280;48772;55.586;37.730;2022-12-08T04:47:57;99775.69;;;-8.81;100.00
62712;BME280;48772;55.586;37.730;2022-12-08T04:50:23;99804.06;;;-8.59;100.00
62712;BME280;48772;55.586;37.730;2022-12-08T04:52:49;99773.97;;;-8.82;100.00
62712;BME280;48772;55.586;37.730;2022-12-08T04:55:15;99798.91;;;-8.65;100.00
62712;BME280;48772;55.586;37.730;2022-12-08T04:57:41;99792.88;;;-8.73;100.00
62712;BME280;48772;55.586;37.730;2022-12-08T05:00:07;99804.06;;;-8.74;100.00
62712;BME280;48772;55.586;37.730;2022-12-08T05:02:33;99764.47;;;-8.83;100.00
62712;BME280;48772;55.586;37.730;2022-12-08T05:04:59;99805.78;;;-8.65;100.00
62712;BME280;48772;55.586;37.730;2022-12-08T05:07:25;99758.47;;;-8.91;100.00
62712;BME280;48772;55.586;37.730;2022-12-08T05:09:51;99794.59;;;-8.70;100.00
62712;BME280;48772;55.586;37.730;2022-12-08T05:12:17;99767.91;;;-8.83;100.00
62712;BME280;48772;55.586;37.730;2022-12-08T05:14:43;99779.09;;;-8.79;100.00
62712;BME280;48772;55.586;37.730;2022-12-08T05:17:08;99784.25;;;-8.73;100.00
62712;BME280;48772;55.586;37.730;2022-12-08T05:19:34;99789.44;;;-8.73;100.00
62712;BME280;48772;55.586;37.730;2022-12-08T05:22:00;99763.63;;;-8.88;100.00
62712;BME280;48772;55.586;37.730;2022-12-08T05:24:26;99793.72;;;-8.66;100.00
62712;BME280;48772;55.586;37.730;2022-12-08T05:26:56;99787.69;;;-8.65;100.00
62712;BME280;48772;55.586;37.730;2022-12-08T05:29:22;99775.69;;;-8.78;100.00
62712;BME280;48772;55.586;37.730;2022-12-08T05:31:48;99773.94;;;-8.67;100.00
62712;BME280;48772;55.586;37.730;2022-12-08T05:34:13;99767.91;;;-8.80;100.00
62712;BME280;48772;55.586;37.730;2022-12-08T05:36:39;99809.22;;;-8.66;100.00
62712;BME280;48772;55.586;37.730;2022-12-08T05:39:05;99785.97;;;-8.72;100.00
62712;BME280;48772;55.586;37.730;2022-12-08T05:41:31;99773.97;;;-8.82;100.00
62712;BME280;48772;55.586;37.730;2022-12-08T05:44:00;99765.34;;;-8.90;100.00
62712;BME280;48772;55.586;37.730;2022-12-08T05:46:26;99794.59;;;-8.64;100.00
62712;BME280;48772;55.586;37.730;2022-12-08T05:49:12;99750.72;;;-8.84;100.00
62712;BME280;48772;55.586;37.730;2022-12-08T05:51:38;99772.22;;;-8.71;100.00
62712;BME280;48772;55.586;37.730;2022-12-08T05:54:04;99783.41;;;-8.68;100.00
62712;BME280;48772;55.586;37.730;2022-12-08T05:56:30;99724.00;;;-8.90;100.00
62712;BME280;48772;55.586;37.730;2022-12-08T05:58:56;99797.19;;;-8.66;100.00
62712;BME280;48772;55.586;37.730;2022-12-08T06:01:29;99751.56;;;-8.77;100.00
62712;BME280;48772;55.586;37.730;2022-12-08T06:03:57;99788.56;;;-8.59;100.00
62712;BME280;48772;55.586;37.730;2022-12-08T06:06:24;99788.56;;;-8.66;100.00
62712;BME280;48772;55.586;37.730;2022-12-08T06:08:50;99798.03;;;-8.59;100.00
62712;BME280;48772;55.586;37.730;2022-12-08T06:11:20;99757.56;;;-8.74;100.00
62712;BME280;48772;55.586;37.730;2022-12-08T06:13:47;99780.81;;;-8.66;100.00
62712;BME280;48772;55.586;37.730;2022-12-08T06:16:14;99771.34;;;-8.73;100.00
62712;BME280;48772;55.586;37.730;2022-12-08T06:18:40;99779.94;;;-8.65;100.00
62712;BME280;48772;55.586;37.730;2022-12-08T06:21:09;99772.19;;;-8.62;100.00
62712;BME280;48772;55.586;37.730;2022-12-08T06:23:36;99788.53;;;-8.57;100.00
62712;BME280;48772;55.586;37.730;2022-12-08T06:26:10;99778.19;;;-8.54;100.00
62712;BME280;48772;55.586;37.730;2022-12-08T06:28:38;99742.09;;;-8.80;100.00
62712;BME280;48772;55.586;37.730;2022-12-08T06:31:09;99785.06;;;-8.50;100.00
62712;BME280;48772;55.586;37.730;2022-12-08T06:33:36;99773.06;;;-8.63;100.00
62712;BME280;48772;55.586;37.730;2022-12-08T06:36:04;99730.88;;;-8.82;100.00
62712;BME280;48772;55.586;37.730;2022-12-08T06:38:30;99768.72;;;-8.58;100.00
62712;BME280;48772;55.586;37.730;2022-12-08T06:40:57;99770.47;;;-8.59;100.00
62712;BME280;48772;55.586;37.730;2022-12-08T06:43:24;99753.22;;;-8.60;100.00
62712;BME280;48772;55.586;37.730;2022-12-08T06:45:50;99766.13;;;-8.55;100.00
62712;BME280;48772;55.586;37.730;2022-12-08T06:48:16;99770.44;;;-8.47;100.00
62712;BME280;48772;55.586;37.730;2022-12-08T06:50:44;99756.69;;;-8.67;100.00
62712;BME280;48772;55.586;37.730;2022-12-08T06:53:12;99783.34;;;-8.45;100.00
62712;BME280;48772;55.586;37.730;2022-12-08T06:55:52;99741.22;;;-8.82;100.00
62712;BME280;48772;55.586;37.730;2022-12-08T06:58:19;99775.56;;;-8.41;100.00
62712;BME280;48772;55.586;37.730;2022-12-08T07:00:51;99725.72;;;-8.85;100.00
62712;BME280;48772;55.586;37.730;2022-12-08T07:03:22;99781.59;;;-8.42;100.00
62712;BME280;48772;55.586;37.730;2022-12-08T07:05:48;99785.06;;;-8.43;100.00
62712;BME280;48772;55.586;37.730;2022-12-08T07:08:14;99787.66;;;-8.41;100.00
62712;BME280;48772;55.586;37.730;2022-12-08T07:10:41;99770.38;;;-8.36;100.00
62712;BME280;48772;55.586;37.730;2022-12-08T07:13:07;99753.16;;;-8.45;100.00
62712;BME280;48772;55.586;37.730;2022-12-08T07:15:33;99775.50;;;-8.21;100.00
62712;BME280;48772;55.586;37.730;2022-12-08T07:18:00;99765.16;;;-8.24;100.00
62712;BME280;48772;55.586;37.730;2022-12-08T07:20:30;99744.53;;;-8.36;100.00
62712;BME280;48772;55.586;37.730;2022-12-08T07:22:56;99761.72;;;-8.23;100.00
62712;BME280;48772;55.586;37.730;2022-12-08T07:25:23;99760.81;;;-8.21;100.00
62712;BME280;48772;55.586;37.730;2022-12-08T07:27:49;99755.75;;;-8.39;100.00
62712;BME280;48772;55.586;37.730;2022-12-08T07:30:16;99795.28;;;-8.16;100.00
62712;BME280;48772;55.586;37.730;2022-12-08T07:32:42;99708.41;;;-8.57;100.00
62712;BME280;48772;55.586;37.730;2022-12-08T07:35:13;99766.81;;;-8.17;100.00
62712;BME280;48772;55.586;37.730;2022-12-08T07:37:39;99783.16;;;-8.05;100.00
62712;BME280;48772;55.586;37.730;2022-12-08T07:40:07;99766.00;;;-8.21;100.00
62712;BME280;48772;55.586;37.730;2022-12-08T07:42:33;99772.00;;;-8.17;100.00
62712;BME280;48772;55.586;37.730;2022-12-08T07:44:59;99747.88;;;-8.18;100.00
62712;BME280;48772;55.586;37.730;2022-12-08T07:47:25;99750.47;;;-8.15;100.00
62712;BME280;48772;55.586;37.730;2022-12-08T07:49:51;99730.59;;;-8.13;100.00
62712;BME280;48772;55.586;37.730;2022-12-08T07:52:17;99783.94;;;-7.83;100.00
62712;BME280;48772;55.586;37.730;2022-12-08T07:54:43;99781.28;;;-7.76;100.00
62712;BME280;48772;55.586;37.730;2022-12-08T07:57:09;99750.22;;;-7.71;100.00
62712;BME280;48772;55.586;37.730;2022-12-08T07:59:36;99745.03;;;-7.71;100.00
62712;BME280;48772;55.586;37.730;2022-12-08T08:02:02;99738.97;;;-7.70;100.00
62712;BME280;48772;55.586;37.730;2022-12-08T08:04:28;99735.63;;;-7.84;100.00
62712;BME280;48772;55.586;37.730;2022-12-08T08:06:54;99747.56;;;-7.62;100.00
62712;BME280;48772;55.586;37.730;2022-12-08T08:09:20;99693.44;;;-7.95;100.00
62712;BME280;48772;55.586;37.730;2022-12-08T08:11:46;99723.53;;;-7.79;100.00
62712;BME280;48772;55.586;37.730;2022-12-08T08:14:13;99741.56;;;-7.67;100.00
62712;BME280;48772;55.586;37.730;2022-12-08T08:16:39;99740.69;;;-7.68;100.00
62712;BME280;48772;55.586;37.730;2022-12-08T08:19:11;99728.69;;;-7.76;100.00
62712;BME280;48772;55.586;37.730;2022-12-08T08:21:36;99744.16;;;-7.73;100.00
62712;BME280;48772;55.586;37.730;2022-12-08T08:24:02;99721.75;;;-7.73;100.00
62712;BME280;48772;55.586;37.730;2022-12-08T08:26:28;99723.50;;;-7.76;100.00
62712;BME280;48772;55.586;37.730;2022-12-08T08:28:54;99746.75;;;-7.70;100.00
62712;BME280;48772;55.586;37.730;2022-12-08T08:31:26;99722.63;;;-7.75;100.00
62712;BME280;48772;55.586;37.730;2022-12-08T08:33:52;99746.72;;;-7.66;100.00
62712;BME280;48772;55.586;37.730;2022-12-08T08:36:18;99705.44;;;-7.84;100.00
62712;BME280;48772;55.586;37.730;2022-12-08T08:38:46;99722.53;;;-7.62;100.00
62712;BME280;48772;55.586;37.730;2022-12-08T08:41:12;99730.28;;;-7.60;100.00
62712;BME280;48772;55.586;37.730;2022-12-08T08:43:39;99705.34;;;-7.72;100.00
62712;BME280;48772;55.586;37.730;2022-12-08T08:46:05;99728.53;;;-7.55;100.00
62712;BME280;48772;55.586;37.730;2022-12-08T08:48:33;99713.81;;;-7.47;100.00
62712;BME280;48772;55.586;37.730;2022-12-08T08:51:09;99691.38;;;-7.50;100.00
62712;BME280;48772;55.586;37.730;2022-12-08T08:53:36;99729.91;;;-7.12;100.00
62712;BME280;48772;55.586;37.730;2022-12-08T08:56:02;99712.78;;;-7.25;100.00
62712;BME280;48772;55.586;37.730;2022-12-08T08:58:30;99758.50;;;-7.24;100.00
62712;BME280;48772;55.586;37.730;2022-12-08T09:00:57;99711.97;;;-7.35;100.00
62712;BME280;48772;55.586;37.730;2022-12-08T09:03:23;99721.47;;;-7.32;100.00
62712;BME280;48772;55.586;37.730;2022-12-08T09:05:49;99720.56;;;-7.28;100.00
62712;BME280;48772;55.586;37.730;2022-12-08T09:08:15;99729.19;;;-7.29;100.00
62712;BME280;48772;55.586;37.730;2022-12-08T09:10:41;99718.78;;;-7.25;100.00
62712;BME280;48772;55.586;37.730;2022-12-08T09:13:07;99717.06;;;-7.24;100.00
62712;BME280;48772;55.586;37.730;2022-12-08T09:15:33;99690.47;;;-7.44;100.00
62712;BME280;48772;55.586;37.730;2022-12-08T09:17:58;99719.81;;;-7.42;100.00
62712;BME280;48772;55.586;37.730;2022-12-08T09:20:24;99728.31;;;-7.27;100.00
62712;BME280;48772;55.586;37.730;2022-12-08T09:22:50;99706.06;;;-7.49;100.00
62712;BME280;48772;55.586;37.730;2022-12-08T09:25:16;99713.69;;;-7.34;100.00
62712;BME280;48772;55.586;37.730;2022-12-08T09:27:42;99727.44;;;-7.27;100.00
62712;BME280;48772;55.586;37.730;2022-12-08T09:30:09;99708.53;;;-7.35;100.00
62712;BME280;48772;55.586;37.730;2022-12-08T09:32:35;99716.22;;;-7.26;100.00
62712;BME280;48772;55.586;37.730;2022-12-08T09:35:01;99716.16;;;-7.17;100.00
62712;BME280;48772;55.586;37.730;2022-12-08T09:37:28;99722.16;;;-7.14;100.00
62712;BME280;48772;55.586;37.730;2022-12-08T09:39:54;99719.63;;;-7.21;100.00
62712;BME280;48772;55.586;37.730;2022-12-08T09:42:31;99729.09;;;-7.14;100.00
62712;BME280;48772;55.586;37.730;2022-12-08T09:45:08;99724.75;;;-7.15;100.00
62712;BME280;48772;55.586;37.730;2022-12-08T09:47:43;99705.78;;;-7.17;100.00
62712;BME280;48772;55.586;37.730;2022-12-08T09:50:21;99724.72;;;-7.12;100.00
62712;BME280;48772;55.586;37.730;2022-12-08T09:58:16;99650.81;;;-7.46;100.00
62712;BME280;48772;55.586;37.730;2022-12-08T10:00:44;99672.16;;;-7.23;100.00
62712;BME280;48772;55.586;37.730;2022-12-08T10:03:11;99643.00;;;-7.42;100.00
62712;BME280;48772;55.586;37.730;2022-12-08T10:05:42;99712.53;;;-6.99;100.00
62712;BME280;48772;55.586;37.730;2022-12-08T10:08:25;99714.34;;;-7.07;100.00
62712;BME280;48772;55.586;37.730;2022-12-08T10:10:57;99694.53;;;-7.16;100.00
62712;BME280;48772;55.586;37.730;2022-12-08T10:13:41;99695.25;;;-6.97;100.00
62712;BME280;48772;55.586;37.730;2022-12-08T10:16:20;99728.06;;;-6.98;100.00
62712;BME280;48772;55.586;37.730;2022-12-08T10:18:54;99712.56;;;-7.04;100.00
62712;BME280;48772;55.586;37.730;2022-12-08T10:21:26;99729.81;;;-7.02;100.00
62712;BME280;48772;55.586;37.730;2022-12-08T10:24:15;99654.16;;;-7.34;100.00
62712;BME280;48772;55.586;37.730;2022-12-08T10:26:51;99688.50;;;-7.18;100.00
62712;BME280;48772;55.586;37.730;2022-12-08T10:29:23;99635.16;;;-7.34;100.00
62712;BME280;48772;55.586;37.730;2022-12-08T10:32:32;99698.63;;;-6.92;100.00
62712;BME280;48772;55.586;37.730;2022-12-08T10:35:15;99679.03;;;-7.21;100.00
62712;BME280;48772;55.586;37.730;2022-12-08T10:37:58;99710.09;;;-7.16;100.00
62712;BME280;48772;55.586;37.730;2022-12-08T10:40:34;99711.72;;;-7.03;100.00
62712;BME280;48772;55.586;37.730;2022-12-08T10:43:02;99741.91;;;-7.00;100.00
62712;BME280;48772;55.586;37.730;2022-12-08T10:46:08;99680.81;;;-7.26;100.00
62712;BME280;48772;55.586;37.730;2022-12-08T10:49:09;99683.31;;;-7.18;100.00
62712;BME280;48772;55.586;37.730;2022-12-08T10:52:26;99679.06;;;-7.24;100.00
62712;BME280;48772;55.586;37.730;2022-12-08T10:54:59;99729.75;;;-6.97;100.00
62712;BME280;48772;55.586;37.730;2022-12-08T10:57:26;99716.00;;;-7.02;100.00
62712;BME280;48772;55.586;37.730;2022-12-08T10:59:56;99651.63;;;-7.44;100.00
62712;BME280;48772;55.586;37.730;2022-12-08T11:02:28;99667.09;;;-7.32;100.00
62712;BME280;48772;55.586;37.730;2022-12-08T11:05:00;99716.13;;;-7.14;100.00
62712;BME280;48772;55.586;37.730;2022-12-08T11:07:27;99657.66;;;-7.39;100.00
62712;BME280;48772;55.586;37.730;2022-12-08T11:09:58;99710.84;;;-7.05;100.00
62712;BME280;48772;55.586;37.730;2022-12-08T11:12:29;99689.41;;;-7.21;100.00
62712;BME280;48772;55.586;37.730;2022-12-08T11:14:59;99631.72;;;-7.36;100.00
62712;BME280;48772;55.586;37.730;2022-12-08T11:17:35;99709.91;;;-6.95;100.00
62712;BME280;48772;55.586;37.730;2022-12-08T11:20:24;99707.22;;;-6.89;100.00
62712;BME280;48772;55.586;37.730;2022-12-08T11:22:55;99680.56;;;-6.98;100.00
62712;BME280;48772;55.586;37.730;2022-12-08T11:25:26;99671.94;;;-7.00;100.00
62712;BME280;48772;55.586;37.730;2022-12-08T11:27:59;99697.72;;;-6.88;100.00
62712;BME280;48772;55.586;37.730;2022-12-08T11:30:33;99691.69;;;-6.89;100.00
62712;BME280;48772;55.586;37.730;2022-12-08T11:35:41;99672.78;;;-7.00;100.00
62712;BME280;48772;55.586;37.730;2022-12-08T11:38:18;99697.63;;;-6.79;100.00
62712;BME280;48772;55.586;37.730;2022-12-08T11:40:53;99689.22;;;-7.03;100.00
62712;BME280;48772;55.586;37.730;2022-12-08T11:46:20;99647.78;;;-7.03;100.00
62712;BME280;48772;55.586;37.730;2022-12-08T11:52:02;99623.72;;;-7.15;100.00
62712;BME280;48772;55.586;37.730;2022-12-08T11:54:53;99628.91;;;-7.14;100.00
62712;BME280;48772;55.586;37.730;2022-12-08T11:57:25;99622.03;;;-7.18;100.00
62712;BME280;48772;55.586;37.730;2022-12-08T11:59:55;99672.72;;;-6.91;100.00
62712;BME280;48772;55.586;37.730;2022-12-08T12:02:29;99631.47;;;-7.14;100.00
62712;BME280;48772;55.586;37.730;2022-12-08T12:05:38;99671.88;;;-6.96;100.00
62712;BME280;48772;55.586;37.730;2022-12-08T12:11:25;99710.56;;;-6.76;100.00
62712;BME280;48772;55.586;37.730;2022-12-08T12:14:59;99711.41;;;-6.76;100.00
62712;BME280;48772;55.586;37.730;2022-12-08T12:23:08;99644.47;;;-7.18;100.00
62712;BME280;48772;55.586;37.730;2022-12-08T12:26:00;99642.69;;;-7.08;100.00
62712;BME280;48772;55.586;37.730;2022-12-08T12:28:43;99640.09;;;-7.10;100.00
62712;BME280;48772;55.586;37.730;2022-12-08T12:31:18;99689.94;;;-6.87;100.00
62712;BME280;48772;55.586;37.730;2022-12-08T12:33:54;99682.19;;;-6.90;100.00
62712;BME280;48772;55.586;37.730;2022-12-08T12:36:29;99654.78;;;-7.11;100.00
62712;BME280;48772;55.586;37.730;2022-12-08T12:39:14;99662.53;;;-7.09;100.00
62712;BME280;48772;55.586;37.730;2022-12-08T12:42:04;99659.13;;;-7.14;100.00
62712;BME280;48772;55.586;37.730;2022-12-08T12:44:40;99704.56;;;-6.80;100.00
62712;BME280;48772;55.586;37.730;2022-12-08T12:47:12;99705.47;;;-6.84;100.00
62712;BME280;48772;55.586;37.730;2022-12-08T12:57:38;99717.53;;;-6.83;100.00
62712;BME280;48772;55.586;37.730;2022-12-08T13:00:38;99667.72;;;-7.09;100.00
62712;BME280;48772;55.586;37.730;2022-12-08T13:03:13;99733.97;;;-6.82;100.00
62712;BME280;48772;55.586;37.730;2022-12-08T13:05:52;99706.41;;;-6.91;100.00
62712;BME280;48772;55.586;37.730;2022-12-08T13:08:34;99723.59;;;-6.81;100.00
62712;BME280;48772;55.586;37.730;2022-12-08T13:11:07;99681.47;;;-7.04;100.00
62712;BME280;48772;55.586;37.730;2022-12-08T13:14:00;99699.44;;;-6.87;100.00
62712;BME280;48772;55.586;37.730;2022-12-08T13:16:45;99748.44;;;-6.62;100.00
62712;BME280;48772;55.586;37.730;2022-12-08T13:19:29;99726.09;;;-6.75;100.00
62712;BME280;48772;55.586;37.730;2022-12-08T13:22:02;99750.16;;;-6.64;100.00
62712;BME280;48772;55.586;37.730;2022-12-08T13:24:35;99717.56;;;-6.86;100.00
62712;BME280;48772;55.586;37.730;2022-12-08T13:29:38;99672.88;;;-7.07;100.00
62712;BME280;48772;55.586;37.730;2022-12-08T13:34:59;99659.00;;;-7.02;100.00
62712;BME280;48772;55.586;37.730;2022-12-08T13:37:41;99684.81;;;-6.93;100.00
62712;BME280;48772;55.586;37.730;2022-12-08T13:41:03;99737.97;;;-6.56;100.00
62712;BME280;48772;55.586;37.730;2022-12-08T13:43:56;99665.78;;;-6.90;100.00
62712;BME280;48772;55.586;37.730;2022-12-08T13:46:51;99719.00;;;-6.58;100.00
62712;BME280;48772;55.586;37.730;2022-12-08T13:49:31;99664.94;;;-6.92;100.00
62712;BME280;48772;55.586;37.730;2022-12-08T13:52:08;99686.50;;;-6.89;100.00
62712;BME280;48772;55.586;37.730;2022-12-08T13:57:50;99705.22;;;-6.63;100.00
62712;BME280;48772;55.586;37.730;2022-12-08T14:03:54;99693.25;;;-6.73;100.00
62712;BME280;48772;55.586;37.730;2022-12-08T14:06:57;99675.19;;;-6.82;100.00